sensor_id;sensor_type;location;lat;lon;timestamp;temperature;humidity
69776;DHT22;57049;51.450;-2.516;2022-09-03T00:00:46;17.07;85.38
69776;DHT22;57049;51.450;-2.516;2022-09-03T00:06:00;16.99;85.74
69776;DHT22;57049;51.450;-2.516;2022-09-03T00:08:47;16.89;85.47
69776;DHT22;57049;51.450;-2.516;2022-09-03T00:11:24;16.71;85.94
69776;DHT22;57049;51.450;-2.516;2022-09-03T00:13:59;16.58;86.77
69776;DHT22;57049;51.450;-2.516;2022-09-03T00:16:42;16.57;86.86
69776;DHT22;57049;51.450;-2.516;2022-09-03T00:19:09;16.56;87.14
69776;DHT22;57049;51.450;-2.516;2022-09-03T00:21:57;16.54;87.40
69776;DHT22;57049;51.450;-2.516;2022-09-03T00:24:28;16.54;87.51
69776;DHT22;57049;51.450;-2.516;2022-09-03T00:26:59;16.53;87.61
69776;DHT22;57049;51.450;-2.516;2022-09-03T00:29:34;16.58;87.26
69776;DHT22;57049;51.450;-2.516;2022-09-03T00:32:27;16.53;87.48
69776;DHT22;57049;51.450;-2.516;2022-09-03T00:35:01;16.48;87.90
69776;DHT22;57049;51.450;-2.516;2022-09-03T00:37:27;16.47;87.91
69776;DHT22;57049;51.450;-2.516;2022-09-03T00:39:55;16.46;88.35
69776;DHT22;57049;51.450;-2.516;2022-09-03T00:42:46;16.43;88.50
69776;DHT22;57049;51.450;-2.516;2022-09-03T00:48:02;16.36;88.40
69776;DHT22;57049;51.450;-2.516;2022-09-03T00:53:52;16.34;88.93
69776;DHT22;57049;51.450;-2.516;2022-09-03T01:02:06;16.43;88.72
69776;DHT22;57049;51.450;-2.516;2022-09-03T01:05:10;16.48;88.71
69776;DHT22;57049;51.450;-2.516;2022-09-03T01:13:16;16.47;88.85
69776;DHT22;57049;51.450;-2.516;2022-09-03T01:29:35;16.24;89.63
69776;DHT22;57049;51.450;-2.516;2022-09-03T01:32:29;16.18;89.56
69776;DHT22;57049;51.450;-2.516;2022-09-03T01:40:45;16.00;90.16
69776;DHT22;57049;51.450;-2.516;2022-09-03T01:46:18;15.93;90.89
69776;DHT22;57049;51.450;-2.516;2022-09-03T01:51:27;15.79;91.31
69776;DHT22;57049;51.450;-2.516;2022-09-03T01:59:54;15.69;92.07
69776;DHT22;57049;51.450;-2.516;2022-09-03T02:02:25;15.59;91.98
69776;DHT22;57049;51.450;-2.516;2022-09-03T02:07:25;15.61;92.60
69776;DHT22;57049;51.450;-2.516;2022-09-03T02:09:53;15.55;92.84
69776;DHT22;57049;51.450;-2.516;2022-09-03T02:12:19;15.52;92.88
69776;DHT22;57049;51.450;-2.516;2022-09-03T02:14:45;15.46;93.03
69776;DHT22;57049;51.450;-2.516;2022-09-03T02:17:11;15.46;92.99
69776;DHT22;57049;51.450;-2.516;2022-09-03T02:19:37;15.51;93.10
69776;DHT22;57049;51.450;-2.516;2022-09-03T02:22:04;15.49;93.19
69776;DHT22;57049;51.450;-2.516;2022-09-03T02:24:29;15.49;93.15
69776;DHT22;57049;51.450;-2.516;2022-09-03T02:26:55;15.46;93.08
69776;DHT22;57049;51.450;-2.516;2022-09-03T02:29:21;15.41;93.40
69776;DHT22;57049;51.450;-2.516;2022-09-03T02:31:47;15.38;93.48
69776;DHT22;57049;51.450;-2.516;2022-09-03T02:34:13;15.25;92.94
69776;DHT22;57049;51.450;-2.516;2022-09-03T02:36:42;15.21;93.38
69776;DHT22;57049;51.450;-2.516;2022-09-03T02:39:10;15.20;94.18
69776;DHT22;57049;51.450;-2.516;2022-09-03T02:41:38;15.20;94.45
69776;DHT22;57049;51.450;-2.516;2022-09-03T02:46:39;15.15;94.32
69776;DHT22;57049;51.450;-2.516;2022-09-03T02:49:05;15.10;94.51
69776;DHT22;57049;51.450;-2.516;2022-09-03T02:51:42;15.04;94.96
69776;DHT22;57049;51.450;-2.516;2022-09-03T02:54:08;14.97;95.08
69776;DHT22;57049;51.450;-2.516;2022-09-03T02:56:35;14.94;95.28
69776;DHT22;57049;51.450;-2.516;2022-09-03T02:59:04;14.88;95.41
69776;DHT22;57049;51.450;-2.516;2022-09-03T03:01:30;14.95;95.60
69776;DHT22;57049;51.450;-2.516;2022-09-03T03:03:56;15.07;96.20
69776;DHT22;57049;51.450;-2.516;2022-09-03T03:06:22;15.15;96.57
69776;DHT22;57049;51.450;-2.516;2022-09-03T03:08:49;15.21;97.20
69776;DHT22;57049;51.450;-2.516;2022-09-03T03:11:16;15.25;97.32
69776;DHT22;57049;51.450;-2.516;2022-09-03T03:13:46;15.28;97.39
69776;DHT22;57049;51.450;-2.516;2022-09-03T03:16:13;15.41;97.37
69776;DHT22;57049;51.450;-2.516;2022-09-03T03:18:39;15.41;97.49
69776;DHT22;57049;51.450;-2.516;2022-09-03T03:21:09;15.41;97.71
69776;DHT22;57049;51.450;-2.516;2022-09-03T03:23:35;15.44;97.68
69776;DHT22;57049;51.450;-2.516;2022-09-03T03:26:02;15.48;97.73
69776;DHT22;57049;51.450;-2.516;2022-09-03T03:28:28;15.51;97.58
69776;DHT22;57049;51.450;-2.516;2022-09-03T03:31:04;15.48;97.63
69776;DHT22;57049;51.450;-2.516;2022-09-03T03:33:30;15.54;97.57
69776;DHT22;57049;51.450;-2.516;2022-09-03T03:35:55;15.56;97.65
69776;DHT22;57049;51.450;-2.516;2022-09-03T03:38:21;15.61;97.44
69776;DHT22;57049;51.450;-2.516;2022-09-03T03:40:46;15.59;97.67
69776;DHT22;57049;51.450;-2.516;2022-09-03T03:43:12;15.59;97.66
69776;DHT22;57049;51.450;-2.516;2022-09-03T03:45:37;15.59;97.52
69776;DHT22;57049;51.450;-2.516;2022-09-03T03:48:03;15.63;97.57
69776;DHT22;57049;51.450;-2.516;2022-09-03T03:50:28;15.63;97.50
69776;DHT22;57049;51.450;-2.516;2022-09-03T03:52:54;15.63;97.33
69776;DHT22;57049;51.450;-2.516;2022-09-03T03:55:19;15.70;97.32
69776;DHT22;57049;51.450;-2.516;2022-09-03T03:57:44;15.67;97.45
69776;DHT22;57049;51.450;-2.516;2022-09-03T04:00:10;15.72;97.41
69776;DHT22;57049;51.450;-2.516;2022-09-03T04:02:36;15.66;97.48
69776;DHT22;57049;51.450;-2.516;2022-09-03T04:05:01;15.69;97.58
69776;DHT22;57049;51.450;-2.516;2022-09-03T04:07:27;15.70;97.42
69776;DHT22;57049;51.450;-2.516;2022-09-03T04:09:52;15.73;97.47
69776;DHT22;57049;51.450;-2.516;2022-09-03T04:12:18;15.78;97.31
69776;DHT22;57049;51.450;-2.516;2022-09-03T04:14:43;15.79;97.38
69776;DHT22;57049;51.450;-2.516;2022-09-03T04:17:09;15.78;97.31
69776;DHT22;57049;51.450;-2.516;2022-09-03T04:19:34;15.81;97.25
69776;DHT22;57049;51.450;-2.516;2022-09-03T04:22:00;15.85;97.34
69776;DHT22;57049;51.450;-2.516;2022-09-03T04:24:25;15.82;97.10
69776;DHT22;57049;51.450;-2.516;2022-09-03T04:26:51;15.78;97.27
69776;DHT22;57049;51.450;-2.516;2022-09-03T04:29:18;15.78;97.36
69776;DHT22;57049;51.450;-2.516;2022-09-03T04:31:43;15.79;97.27
69776;DHT22;57049;51.450;-2.516;2022-09-03T04:34:29;15.73;97.49
69776;DHT22;57049;51.450;-2.516;2022-09-03T04:36:54;15.82;97.28
69776;DHT22;57049;51.450;-2.516;2022-09-03T04:39:22;15.86;97.13
69776;DHT22;57049;51.450;-2.516;2022-09-03T04:41:47;15.85;97.08
69776;DHT22;57049;51.450;-2.516;2022-09-03T04:44:13;15.86;96.96
69776;DHT22;57049;51.450;-2.516;2022-09-03T04:46:38;15.99;96.66
69776;DHT22;57049;51.450;-2.516;2022-09-03T04:49:04;15.97;96.56
69776;DHT22;57049;51.450;-2.516;2022-09-03T04:51:31;15.97;96.76
69776;DHT22;57049;51.450;-2.516;2022-09-03T04:53:58;15.93;96.54
69776;DHT22;57049;51.450;-2.516;2022-09-03T04:56:30;15.96;96.47
69776;DHT22;57049;51.450;-2.516;2022-09-03T04:58:58;15.92;96.54
69776;DHT22;57049;51.450;-2.516;2022-09-03T05:01:27;15.96;96.55
69776;DHT22;57049;51.450;-2.516;2022-09-03T05:03:54;15.96;96.57
69776;DHT22;57049;51.450;-2.516;2022-09-03T05:06:20;15.97;96.55
69776;DHT22;57049;51.450;-2.516;2022-09-03T05:08:49;16.02;96.45
69776;DHT22;57049;51.450;-2.516;2022-09-03T05:11:16;16.05;96.35
69776;DHT22;57049;51.450;-2.516;2022-09-03T05:13:42;15.99;96.34
69776;DHT22;57049;51.450;-2.516;2022-09-03T05:16:09;15.92;96.32
69776;DHT22;57049;51.450;-2.516;2022-09-03T05:18:36;15.90;96.52
69776;DHT22;57049;51.450;-2.516;2022-09-03T05:21:03;15.86;96.83
69776;DHT22;57049;51.450;-2.516;2022-09-03T05:23:30;15.82;96.94
69776;DHT22;57049;51.450;-2.516;2022-09-03T05:25:57;15.79;96.90
69776;DHT22;57049;51.450;-2.516;2022-09-03T05:28:27;15.75;97.05
69776;DHT22;57049;51.450;-2.516;2022-09-03T05:31:00;15.72;97.36
69776;DHT22;57049;51.450;-2.516;2022-09-03T05:33:26;15.72;97.27
69776;DHT22;57049;51.450;-2.516;2022-09-03T05:35:54;15.73;97.12
69776;DHT22;57049;51.450;-2.516;2022-09-03T05:38:19;15.73;97.23
69776;DHT22;57049;51.450;-2.516;2022-09-03T05:40:45;15.73;97.00
69776;DHT22;57049;51.450;-2.516;2022-09-03T05:43:10;15.72;97.31
69776;DHT22;57049;51.450;-2.516;2022-09-03T05:45:36;15.79;97.19
69776;DHT22;57049;51.450;-2.516;2022-09-03T05:48:02;15.81;97.20
69776;DHT22;57049;51.450;-2.516;2022-09-03T05:50:27;15.82;97.05
69776;DHT22;57049;51.450;-2.516;2022-09-03T05:52:53;15.87;96.87
69776;DHT22;57049;51.450;-2.516;2022-09-03T05:55:18;15.86;96.87
69776;DHT22;57049;51.450;-2.516;2022-09-03T05:57:44;15.90;96.86
69776;DHT22;57049;51.450;-2.516;2022-09-03T06:00:10;15.95;96.67
69776;DHT22;57049;51.450;-2.516;2022-09-03T06:02:36;15.96;96.55
69776;DHT22;57049;51.450;-2.516;2022-09-03T06:05:02;16.00;96.57
69776;DHT22;57049;51.450;-2.516;2022-09-03T06:07:27;16.12;96.30
69776;DHT22;57049;51.450;-2.516;2022-09-03T06:09:53;16.16;96.03
69776;DHT22;57049;51.450;-2.516;2022-09-03T06:12:19;16.21;95.89
69776;DHT22;57049;51.450;-2.516;2022-09-03T06:14:44;16.27;95.60
69776;DHT22;57049;51.450;-2.516;2022-09-03T06:17:09;16.38;95.15
69776;DHT22;57049;51.450;-2.516;2022-09-03T06:19:37;16.47;94.87
69776;DHT22;57049;51.450;-2.516;2022-09-03T06:22:02;16.60;94.29
69776;DHT22;57049;51.450;-2.516;2022-09-03T06:24:28;16.67;93.99
69776;DHT22;57049;51.450;-2.516;2022-09-03T06:26:55;16.85;93.65
69776;DHT22;57049;51.450;-2.516;2022-09-03T06:29:21;17.05;92.20
69776;DHT22;57049;51.450;-2.516;2022-09-03T06:31:46;17.22;91.73
69776;DHT22;57049;51.450;-2.516;2022-09-03T06:34:15;17.30;90.87
69776;DHT22;57049;51.450;-2.516;2022-09-03T06:36:43;17.43;90.49
69776;DHT22;57049;51.450;-2.516;2022-09-03T06:39:08;17.63;89.29
69776;DHT22;57049;51.450;-2.516;2022-09-03T06:41:34;17.46;89.64
69776;DHT22;57049;51.450;-2.516;2022-09-03T06:44:04;17.46;89.59
69776;DHT22;57049;51.450;-2.516;2022-09-03T06:46:33;17.49;89.59
69776;DHT22;57049;51.450;-2.516;2022-09-03T06:48:59;17.66;88.86
69776;DHT22;57049;51.450;-2.516;2022-09-03T06:51:27;17.62;89.12
69776;DHT22;57049;51.450;-2.516;2022-09-03T06:53:58;17.56;88.93
69776;DHT22;57049;51.450;-2.516;2022-09-03T06:56:24;17.59;88.92
69776;DHT22;57049;51.450;-2.516;2022-09-03T06:58:56;17.74;88.42
69776;DHT22;57049;51.450;-2.516;2022-09-03T07:01:27;17.56;89.14
69776;DHT22;57049;51.450;-2.516;2022-09-03T07:03:56;17.45;89.03
69776;DHT22;57049;51.450;-2.516;2022-09-03T07:06:24;17.53;89.28
69776;DHT22;57049;51.450;-2.516;2022-09-03T07:08:50;17.49;89.20
69776;DHT22;57049;51.450;-2.516;2022-09-03T07:11:19;17.45;89.22
69776;DHT22;57049;51.450;-2.516;2022-09-03T07:13:48;17.20;89.99
69776;DHT22;57049;51.450;-2.516;2022-09-03T07:16:19;17.19;90.28
69776;DHT22;57049;51.450;-2.516;2022-09-03T07:18:45;17.28;90.06
69776;DHT22;57049;51.450;-2.516;2022-09-03T07:21:23;17.22;90.22
69776;DHT22;57049;51.450;-2.516;2022-09-03T07:23:51;17.15;90.28
69776;DHT22;57049;51.450;-2.516;2022-09-03T07:26:25;17.07;90.64
69776;DHT22;57049;51.450;-2.516;2022-09-03T07:28:52;16.98;90.92
69776;DHT22;57049;51.450;-2.516;2022-09-03T07:31:26;17.16;90.94
69776;DHT22;57049;51.450;-2.516;2022-09-03T07:33:56;17.05;90.97
69776;DHT22;57049;51.450;-2.516;2022-09-03T07:36:23;17.28;90.30
69776;DHT22;57049;51.450;-2.516;2022-09-03T07:38:50;17.38;90.12
69776;DHT22;57049;51.450;-2.516;2022-09-03T07:41:15;17.30;90.17
69776;DHT22;57049;51.450;-2.516;2022-09-03T07:43:45;17.36;90.05
69776;DHT22;57049;51.450;-2.516;2022-09-03T07:46:18;17.29;90.18
69776;DHT22;57049;51.450;-2.516;2022-09-03T07:48:57;17.38;90.06
69776;DHT22;57049;51.450;-2.516;2022-09-03T07:51:25;17.42;89.57
69776;DHT22;57049;51.450;-2.516;2022-09-03T07:53:56;17.49;89.26
69776;DHT22;57049;51.450;-2.516;2022-09-03T07:56:22;17.56;89.23
69776;DHT22;57049;51.450;-2.516;2022-09-03T07:58:48;17.57;89.08
69776;DHT22;57049;51.450;-2.516;2022-09-03T08:01:16;17.77;88.72
69776;DHT22;57049;51.450;-2.516;2022-09-03T08:03:46;17.84;88.15
69776;DHT22;57049;51.450;-2.516;2022-09-03T08:06:13;17.80;88.12
69776;DHT22;57049;51.450;-2.516;2022-09-03T08:08:40;17.80;87.95
69776;DHT22;57049;51.450;-2.516;2022-09-03T08:11:14;17.98;87.76
69776;DHT22;57049;51.450;-2.516;2022-09-03T08:13:41;18.25;87.21
69776;DHT22;57049;51.450;-2.516;2022-09-03T08:16:08;18.32;86.41
69776;DHT22;57049;51.450;-2.516;2022-09-03T08:18:34;18.58;85.78
69776;DHT22;57049;51.450;-2.516;2022-09-03T08:21:13;18.77;84.80
69776;DHT22;57049;51.450;-2.516;2022-09-03T08:23:45;19.00;83.74
69776;DHT22;57049;51.450;-2.516;2022-09-03T08:26:11;19.02;84.08
69776;DHT22;57049;51.450;-2.516;2022-09-03T08:28:38;19.17;83.47
69776;DHT22;57049;51.450;-2.516;2022-09-03T08:31:08;19.10;83.22
69776;DHT22;57049;51.450;-2.516;2022-09-03T08:33:36;19.07;83.75
69776;DHT22;57049;51.450;-2.516;2022-09-03T08:36:06;19.16;83.66
69776;DHT22;57049;51.450;-2.516;2022-09-03T08:38:33;19.13;83.38
69776;DHT22;57049;51.450;-2.516;2022-09-03T08:41:09;19.22;83.64
69776;DHT22;57049;51.450;-2.516;2022-09-03T08:46:20;19.33;82.11
69776;DHT22;57049;51.450;-2.516;2022-09-03T08:48:48;19.36;81.97
69776;DHT22;57049;51.450;-2.516;2022-09-03T08:51:14;19.30;81.79
69776;DHT22;57049;51.450;-2.516;2022-09-03T08:53:47;19.47;81.56
69776;DHT22;57049;51.450;-2.516;2022-09-03T08:56:20;19.28;81.71
69776;DHT22;57049;51.450;-2.516;2022-09-03T08:58:46;19.38;82.15
69776;DHT22;57049;51.450;-2.516;2022-09-03T09:01:48;19.71;80.55
69776;DHT22;57049;51.450;-2.516;2022-09-03T09:04:23;19.91;80.03
69776;DHT22;57049;51.450;-2.516;2022-09-03T09:09:41;19.98;80.14
69776;DHT22;57049;51.450;-2.516;2022-09-03T09:26:09;19.40;83.32
69776;DHT22;57049;51.450;-2.516;2022-09-03T09:28:37;19.10;85.68
69776;DHT22;57049;51.450;-2.516;2022-09-03T09:31:05;18.93;86.60
69776;DHT22;57049;51.450;-2.516;2022-09-03T09:33:33;18.95;86.75
69776;DHT22;57049;51.450;-2.516;2022-09-03T09:36:01;18.92;86.29
69776;DHT22;57049;51.450;-2.516;2022-09-03T09:38:32;18.95;87.70
69776;DHT22;57049;51.450;-2.516;2022-09-03T09:41:26;18.91;87.77
69776;DHT22;57049;51.450;-2.516;2022-09-03T09:44:00;18.98;87.28
69776;DHT22;57049;51.450;-2.516;2022-09-03T09:46:34;19.14;87.73
69776;DHT22;57049;51.450;-2.516;2022-09-03T09:49:00;19.33;86.80
69776;DHT22;57049;51.450;-2.516;2022-09-03T09:51:28;19.63;87.47
69776;DHT22;57049;51.450;-2.516;2022-09-03T09:56:26;20.21;84.41
69776;DHT22;57049;51.450;-2.516;2022-09-03T09:59:05;20.25;83.31
69776;DHT22;57049;51.450;-2.516;2022-09-03T10:01:33;20.28;82.77
69776;DHT22;57049;51.450;-2.516;2022-09-03T10:04:22;20.35;80.86
69776;DHT22;57049;51.450;-2.516;2022-09-03T10:06:54;20.42;81.02
69776;DHT22;57049;51.450;-2.516;2022-09-03T10:09:35;20.43;83.16
69776;DHT22;57049;51.450;-2.516;2022-09-03T10:14:38;20.55;82.06
69776;DHT22;57049;51.450;-2.516;2022-09-03T10:20:13;20.72;80.25
69776;DHT22;57049;51.450;-2.516;2022-09-03T10:25:57;20.59;80.31
69776;DHT22;57049;51.450;-2.516;2022-09-03T10:28:32;20.72;79.87
69776;DHT22;57049;51.450;-2.516;2022-09-03T10:31:18;20.89;80.68
69776;DHT22;57049;51.450;-2.516;2022-09-03T10:33:50;20.76;77.79
69776;DHT22;57049;51.450;-2.516;2022-09-03T10:36:18;20.84;79.24
69776;DHT22;57049;51.450;-2.516;2022-09-03T10:38:52;20.93;78.84
69776;DHT22;57049;51.450;-2.516;2022-09-03T10:41:26;21.10;77.84
69776;DHT22;57049;51.450;-2.516;2022-09-03T10:44:22;21.27;77.88
69776;DHT22;57049;51.450;-2.516;2022-09-03T10:47:12;21.48;77.03
69776;DHT22;57049;51.450;-2.516;2022-09-03T10:52:39;21.18;77.09
69776;DHT22;57049;51.450;-2.516;2022-09-03T10:55:21;21.42;75.02
69776;DHT22;57049;51.450;-2.516;2022-09-03T10:58:17;21.41;73.40
69776;DHT22;57049;51.450;-2.516;2022-09-03T11:00:53;21.42;72.36
69776;DHT22;57049;51.450;-2.516;2022-09-03T11:07:07;21.47;71.18
69776;DHT22;57049;51.450;-2.516;2022-09-03T11:09:17;21.69;71.87
69776;DHT22;57049;51.450;-2.516;2022-09-03T11:11:56;22.19;71.89
69776;DHT22;57049;51.450;-2.516;2022-09-03T11:14:44;22.16;71.53
69776;DHT22;57049;51.450;-2.516;2022-09-03T11:17:18;22.22;71.51
69776;DHT22;57049;51.450;-2.516;2022-09-03T11:22:32;22.44;70.53
69776;DHT22;57049;51.450;-2.516;2022-09-03T11:25:00;22.53;70.81
69776;DHT22;57049;51.450;-2.516;2022-09-03T11:30:22;22.24;71.81
69776;DHT22;57049;51.450;-2.516;2022-09-03T11:32:52;22.17;71.54
69776;DHT22;57049;51.450;-2.516;2022-09-03T11:38:01;21.89;71.91
69776;DHT22;57049;51.450;-2.516;2022-09-03T11:40:38;21.89;70.11
69776;DHT22;57049;51.450;-2.516;2022-09-03T11:43:28;21.69;69.11
69776;DHT22;57049;51.450;-2.516;2022-09-03T11:46:13;21.68;70.19
69776;DHT22;57049;51.450;-2.516;2022-09-03T11:48:56;21.68;69.75
69776;DHT22;57049;51.450;-2.516;2022-09-03T11:54:24;21.81;69.37
69776;DHT22;57049;51.450;-2.516;2022-09-03T11:57:02;21.98;70.16
69776;DHT22;57049;51.450;-2.516;2022-09-03T11:59:29;22.13;69.88
69776;DHT22;57049;51.450;-2.516;2022-09-03T12:02:23;21.95;68.76
69776;DHT22;57049;51.450;-2.516;2022-09-03T12:07:20;21.78;69.03
69776;DHT22;57049;51.450;-2.516;2022-09-03T12:20:39;21.82;68.96
69776;DHT22;57049;51.450;-2.516;2022-09-03T12:23:04;21.74;70.05
69776;DHT22;57049;51.450;-2.516;2022-09-03T12:25:31;21.88;69.62
69776;DHT22;57049;51.450;-2.516;2022-09-03T12:28:00;21.91;68.59
69776;DHT22;57049;51.450;-2.516;2022-09-03T12:30:27;21.82;68.94
69776;DHT22;57049;51.450;-2.516;2022-09-03T12:33:16;22.22;68.91
69776;DHT22;57049;51.450;-2.516;2022-09-03T12:35:42;22.35;66.86
69776;DHT22;57049;51.450;-2.516;2022-09-03T12:38:08;22.28;66.37
69776;DHT22;57049;51.450;-2.516;2022-09-03T12:40:41;22.56;64.87
69776;DHT22;57049;51.450;-2.516;2022-09-03T12:43:13;22.52;65.28
69776;DHT22;57049;51.450;-2.516;2022-09-03T12:45:46;22.57;61.87
69776;DHT22;57049;51.450;-2.516;2022-09-03T12:48:17;22.74;64.60
69776;DHT22;57049;51.450;-2.516;2022-09-03T12:50:45;22.97;62.62
69776;DHT22;57049;51.450;-2.516;2022-09-03T12:53:20;23.38;62.54
69776;DHT22;57049;51.450;-2.516;2022-09-03T12:55:54;23.11;59.94
69776;DHT22;57049;51.450;-2.516;2022-09-03T12:58:32;23.19;58.29
69776;DHT22;57049;51.450;-2.516;2022-09-03T13:01:17;23.45;60.08
69776;DHT22;57049;51.450;-2.516;2022-09-03T13:03:52;23.83;59.52
69776;DHT22;57049;51.450;-2.516;2022-09-03T13:06:26;23.76;57.29
69776;DHT22;57049;51.450;-2.516;2022-09-03T13:08:56;23.59;56.70
69776;DHT22;57049;51.450;-2.516;2022-09-03T13:11:24;23.45;56.79
69776;DHT22;57049;51.450;-2.516;2022-09-03T13:13:55;23.52;58.92
69776;DHT22;57049;51.450;-2.516;2022-09-03T13:17:05;23.19;59.12
69776;DHT22;57049;51.450;-2.516;2022-09-03T13:19:46;23.29;58.78
69776;DHT22;57049;51.450;-2.516;2022-09-03T13:30:20;23.44;56.93
69776;DHT22;57049;51.450;-2.516;2022-09-03T13:41:15;22.97;57.50
69776;DHT22;57049;51.450;-2.516;2022-09-03T13:43:56;22.88;58.68
69776;DHT22;57049;51.450;-2.516;2022-09-03T13:52:50;23.18;58.00
69776;DHT22;57049;51.450;-2.516;2022-09-03T13:55:30;23.00;58.55
69776;DHT22;57049;51.450;-2.516;2022-09-03T13:58:30;22.88;59.89
69776;DHT22;57049;51.450;-2.516;2022-09-03T14:03:45;22.63;59.29
69776;DHT22;57049;51.450;-2.516;2022-09-03T14:12:13;22.14;60.46
69776;DHT22;57049;51.450;-2.516;2022-09-03T14:15:02;22.30;60.56
69776;DHT22;57049;51.450;-2.516;2022-09-03T14:17:51;22.14;61.04
69776;DHT22;57049;51.450;-2.516;2022-09-03T14:22:54;21.82;61.49
69776;DHT22;57049;51.450;-2.516;2022-09-03T14:25:22;21.93;61.42
69776;DHT22;57049;51.450;-2.516;2022-09-03T14:27:49;22.05;62.23
69776;DHT22;57049;51.450;-2.516;2022-09-03T14:40:49;21.93;62.76
69776;DHT22;57049;51.450;-2.516;2022-09-03T14:43:46;21.95;62.49
69776;DHT22;57049;51.450;-2.516;2022-09-03T14:46:35;22.10;61.96
69776;DHT22;57049;51.450;-2.516;2022-09-03T14:52:03;21.82;63.54
69776;DHT22;57049;51.450;-2.516;2022-09-03T14:57:30;21.81;63.81
69776;DHT22;57049;51.450;-2.516;2022-09-03T15:11:22;21.54;63.20
69776;DHT22;57049;51.450;-2.516;2022-09-03T15:13:59;21.54;62.88
69776;DHT22;57049;51.450;-2.516;2022-09-03T15:19:51;21.28;61.04
69776;DHT22;57049;51.450;-2.516;2022-09-03T15:27:47;21.54;59.64
69776;DHT22;57049;51.450;-2.516;2022-09-03T15:30:18;21.31;57.53
69776;DHT22;57049;51.450;-2.516;2022-09-03T15:33:00;21.35;56.75
69776;DHT22;57049;51.450;-2.516;2022-09-03T15:38:46;21.50;56.14
69776;DHT22;57049;51.450;-2.516;2022-09-03T15:44:02;21.38;56.26
69776;DHT22;57049;51.450;-2.516;2022-09-03T15:47:00;21.38;57.04
69776;DHT22;57049;51.450;-2.516;2022-09-03T15:49:51;21.11;58.83
69776;DHT22;57049;51.450;-2.516;2022-09-03T15:55:35;20.86;60.35
69776;DHT22;57049;51.450;-2.516;2022-09-03T15:58:29;20.70;59.70
69776;DHT22;57049;51.450;-2.516;2022-09-03T16:04:32;20.49;60.60
69776;DHT22;57049;51.450;-2.516;2022-09-03T16:07:26;20.52;61.13
69776;DHT22;57049;51.450;-2.516;2022-09-03T16:10:15;20.40;61.24
69776;DHT22;57049;51.450;-2.516;2022-09-03T16:15:32;20.50;61.61
69776;DHT22;57049;51.450;-2.516;2022-09-03T16:18:22;20.46;61.22
69776;DHT22;57049;51.450;-2.516;2022-09-03T16:21:01;20.40;61.38
69776;DHT22;57049;51.450;-2.516;2022-09-03T16:26:33;20.32;61.60
69776;DHT22;57049;51.450;-2.516;2022-09-03T16:29:24;20.19;62.20
69776;DHT22;57049;51.450;-2.516;2022-09-03T16:32:11;20.19;62.33
69776;DHT22;57049;51.450;-2.516;2022-09-03T16:34:41;20.18;62.84
69776;DHT22;57049;51.450;-2.516;2022-09-03T16:49:16;19.88;64.07
69776;DHT22;57049;51.450;-2.516;2022-09-03T16:52:10;19.77;64.33
69776;DHT22;57049;51.450;-2.516;2022-09-03T16:54:50;19.79;64.51
69776;DHT22;57049;51.450;-2.516;2022-09-03T17:09:09;19.58;65.51
69776;DHT22;57049;51.450;-2.516;2022-09-03T17:11:52;19.60;64.93
69776;DHT22;57049;51.450;-2.516;2022-09-03T17:17:06;19.61;65.12
69776;DHT22;57049;51.450;-2.516;2022-09-03T17:19:56;19.50;65.31
69776;DHT22;57049;51.450;-2.516;2022-09-03T17:28:05;19.33;66.13
69776;DHT22;57049;51.450;-2.516;2022-09-03T17:36:37;19.37;66.48
69776;DHT22;57049;51.450;-2.516;2022-09-03T17:49:53;19.27;67.12
69776;DHT22;57049;51.450;-2.516;2022-09-03T17:53:08;19.31;67.38
69776;DHT22;57049;51.450;-2.516;2022-09-03T18:00:54;19.14;68.76
69776;DHT22;57049;51.450;-2.516;2022-09-03T18:06:31;19.10;69.35
69776;DHT22;57049;51.450;-2.516;2022-09-03T18:09:05;19.09;69.13
69776;DHT22;57049;51.450;-2.516;2022-09-03T18:11:47;19.09;69.40
69776;DHT22;57049;51.450;-2.516;2022-09-03T18:14:28;19.12;69.55
69776;DHT22;57049;51.450;-2.516;2022-09-03T18:17:03;19.02;69.85
69776;DHT22;57049;51.450;-2.516;2022-09-03T18:23:04;18.99;70.72
69776;DHT22;57049;51.450;-2.516;2022-09-03T18:25:56;18.95;70.92
69776;DHT22;57049;51.450;-2.516;2022-09-03T18:28:56;18.86;70.93
69776;DHT22;57049;51.450;-2.516;2022-09-03T18:31:43;18.85;71.26
69776;DHT22;57049;51.450;-2.516;2022-09-03T18:34:35;18.82;70.86
69776;DHT22;57049;51.450;-2.516;2022-09-03T18:37:25;18.77;71.43
69776;DHT22;57049;51.450;-2.516;2022-09-03T18:40:13;18.72;71.48
69776;DHT22;57049;51.450;-2.516;2022-09-03T18:43:52;18.62;71.78
69776;DHT22;57049;51.450;-2.516;2022-09-03T18:46:53;18.65;71.67
69776;DHT22;57049;51.450;-2.516;2022-09-03T18:50:01;18.62;71.64
69776;DHT22;57049;51.450;-2.516;2022-09-03T18:52:58;18.54;72.23
69776;DHT22;57049;51.450;-2.516;2022-09-03T18:56:29;18.47;72.14
69776;DHT22;57049;51.450;-2.516;2022-09-03T19:14:33;18.30;72.90
69776;DHT22;57049;51.450;-2.516;2022-09-03T19:20:27;18.27;73.15
69776;DHT22;57049;51.450;-2.516;2022-09-03T19:23:13;18.25;73.45
69776;DHT22;57049;51.450;-2.516;2022-09-03T19:29:02;18.13;74.35
69776;DHT22;57049;51.450;-2.516;2022-09-03T19:31:56;18.10;74.85
69776;DHT22;57049;51.450;-2.516;2022-09-03T19:40:51;18.00;75.65
69776;DHT22;57049;51.450;-2.516;2022-09-03T19:43:46;17.93;75.91
69776;DHT22;57049;51.450;-2.516;2022-09-03T19:46:48;17.90;76.03
69776;DHT22;57049;51.450;-2.516;2022-09-03T19:53:00;17.90;75.96
69776;DHT22;57049;51.450;-2.516;2022-09-03T19:55:51;17.94;76.03
69776;DHT22;57049;51.450;-2.516;2022-09-03T19:58:40;17.91;76.14
69776;DHT22;57049;51.450;-2.516;2022-09-03T20:01:32;17.87;76.39
69776;DHT22;57049;51.450;-2.516;2022-09-03T20:04:18;17.87;76.32
69776;DHT22;57049;51.450;-2.516;2022-09-03T20:07:05;17.81;76.46
69776;DHT22;57049;51.450;-2.516;2022-09-03T20:09:53;17.83;76.57
69776;DHT22;57049;51.450;-2.516;2022-09-03T20:12:45;17.91;76.29
69776;DHT22;57049;51.450;-2.516;2022-09-03T20:15:12;17.84;76.44
69776;DHT22;57049;51.450;-2.516;2022-09-03T20:22:50;17.84;76.47
69776;DHT22;57049;51.450;-2.516;2022-09-03T20:25:27;17.86;76.32
69776;DHT22;57049;51.450;-2.516;2022-09-03T20:30:46;17.81;76.74
69776;DHT22;57049;51.450;-2.516;2022-09-03T20:36:18;17.79;76.96
69776;DHT22;57049;51.450;-2.516;2022-09-03T20:39:11;17.74;77.10
69776;DHT22;57049;51.450;-2.516;2022-09-03T20:42:13;17.76;77.22
69776;DHT22;57049;51.450;-2.516;2022-09-03T20:44:57;17.71;77.21
69776;DHT22;57049;51.450;-2.516;2022-09-03T20:55:23;17.63;77.69
69776;DHT22;57049;51.450;-2.516;2022-09-03T21:00:41;17.62;77.79
69776;DHT22;57049;51.450;-2.516;2022-09-03T21:03:38;17.60;77.84
69776;DHT22;57049;51.450;-2.516;2022-09-03T21:11:46;17.50;78.15
69776;DHT22;57049;51.450;-2.516;2022-09-03T21:14:36;17.46;78.34
69776;DHT22;57049;51.450;-2.516;2022-09-03T21:22:34;17.36;78.63
69776;DHT22;57049;51.450;-2.516;2022-09-03T21:25:07;17.30;78.84
69776;DHT22;57049;51.450;-2.516;2022-09-03T21:27:41;17.30;78.97